METAR Data
IDs: Format: Raw Decoded Include TAF

Data at: 1425 UTC 14 Apr 2021

EPSY 141400Z 01011KT 8000 -RA BKN020 04/02 Q1020